PILOTS ONLINE: 537    ATC ONLINE: 139

KSNA

John Wayne Airport-Orange County Airport

Location

IATA SNA
City Santa Ana
Country  United States
Latitude 33° 40' 32" N
Longitude 117° 52' 4" W
Elevation 56 ft
Type Large Airport

Map

Weather

METAR
2014/10/23 17:53
KSNA 231753Z VRB04KT 8SM FEW300 25/16 A3000 RMK AO2 SLP156 60001 T02500156 10250 20167 51011
TAF
2014/10/23 18:33
TAF KSNA 231729Z 2318/2418 VRB03KT P6SM SCT250 
     FM232100 22007KT P6SM SCT250 
     FM240200 VRB03KT P6SM SKC

Runways

01L/19R 5700 ft / 150 ft
01R/19L 2887 ft / 75 ft

Outbound flights

Callsign Flying to Pilot ATD/STD ETA Aircraft

Inbound flights

Callsign Flying from Pilot ATD ETA Aircraft